createdAt,value
2019-01-08T00:04:50.404Z,2.10
2019-01-08T00:09:56.922Z,2.75
2019-01-08T00:15:03.289Z,2.47
2019-01-08T00:20:08.894Z,2.37
2019-01-08T00:25:14.894Z,2.20
2019-01-08T00:30:21.244Z,2.65
2019-01-08T00:35:27.423Z,2.72
2019-01-08T00:40:33.114Z,2.52
2019-01-08T00:45:40.303Z,2.40
2019-01-08T00:50:45.943Z,4.22
2019-01-08T00:55:53.553Z,2.67
2019-01-08T01:00:59.643Z,4.30
2019-01-08T01:06:05.462Z,2.75
2019-01-08T01:11:11.592Z,3.47
2019-01-08T01:16:17.264Z,2.42
2019-01-08T01:21:22.984Z,2.15
2019-01-08T01:26:28.794Z,2.50
2019-01-08T01:31:35.054Z,2.17
2019-01-08T01:36:40.843Z,2.20
2019-01-08T01:41:46.703Z,3.37
2019-01-08T01:46:52.854Z,2.08
2019-01-08T01:51:59.064Z,2.12
2019-01-08T01:57:05.134Z,2.27
2019-01-08T02:02:10.962Z,1.90
2019-01-08T02:07:17.924Z,2.33
2019-01-08T02:12:24.263Z,2.60
2019-01-08T02:17:30.027Z,2.60
2019-01-08T02:22:35.603Z,2.30
2019-01-08T02:27:41.456Z,2.20
2019-01-08T02:32:47.355Z,2.33
2019-01-08T02:37:52.935Z,2.15
2019-01-08T02:42:58.712Z,1.80
2019-01-08T02:48:05.885Z,1.98
2019-01-08T02:53:11.698Z,2.15
2019-01-08T02:58:17.863Z,2.27
2019-01-08T03:03:23.962Z,2.25
2019-01-08T03:08:29.752Z,2.62
2019-01-08T03:13:35.956Z,2.87
2019-01-08T03:18:43.263Z,2.20
2019-01-08T03:23:49.243Z,2.00
2019-01-08T03:28:55.624Z,2.80
2019-01-08T03:34:01.594Z,1.80
2019-01-08T03:39:08.664Z,2.65
2019-01-08T03:44:14.167Z,2.00
2019-01-08T03:49:19.974Z,2.00
2019-01-08T03:54:26.144Z,1.77
2019-01-08T03:59:44.066Z,1.80
2019-01-08T04:05:02.212Z,2.40
2019-01-08T04:10:08.177Z,2.60
2019-01-08T04:15:13.793Z,1.90
2019-01-08T04:20:19.504Z,1.70
2019-01-08T04:25:25.445Z,1.70
2019-01-08T04:30:31.314Z,1.62
2019-01-08T04:35:37.572Z,1.77
2019-01-08T04:40:44.533Z,2.10
2019-01-08T04:45:51.874Z,2.40
2019-01-08T04:50:58.524Z,2.20
2019-01-08T04:56:04.104Z,1.82
2019-01-08T05:01:10.364Z,1.95
2019-01-08T05:06:15.943Z,1.60
2019-01-08T05:11:21.603Z,1.70
2019-01-08T05:16:27.294Z,1.47
2019-01-08T05:21:33.202Z,1.87
2019-01-08T05:26:39.844Z,2.00
2019-01-08T05:31:45.894Z,1.67
2019-01-08T05:36:52.363Z,2.00
2019-01-08T05:41:59.576Z,2.08
2019-01-08T05:47:05.574Z,1.45
2019-01-08T05:52:13.214Z,1.70
2019-01-08T05:57:21.303Z,1.70
2019-01-08T06:02:29.943Z,1.60
2019-01-08T06:07:35.962Z,1.82
2019-01-08T06:12:42.243Z,1.37
2019-01-08T06:17:47.804Z,1.42
2019-01-08T06:22:54.853Z,1.80
2019-01-08T06:28:00.624Z,1.67
2019-01-08T06:33:06.982Z,1.65
2019-01-08T06:38:13.163Z,1.40
2019-01-08T06:43:18.767Z,1.32
2019-01-08T06:48:24.964Z,1.57
2019-01-08T06:53:30.809Z,1.35
2019-01-08T06:58:36.627Z,1.47
2019-01-08T07:03:52.844Z,1.92
2019-01-08T07:09:18.807Z,1.87
2019-01-08T07:14:38.167Z,1.57
2019-01-08T07:19:44.783Z,1.82
2019-01-08T07:24:50.384Z,3.55
2019-01-08T07:29:56.323Z,1.72
2019-01-08T07:35:02.254Z,1.72
2019-01-08T07:40:08.912Z,1.82
2019-01-08T07:45:15.004Z,2.67
2019-01-08T07:50:20.944Z,1.60
2019-01-08T07:55:27.154Z,3.98
2019-01-08T08:00:33.233Z,1.40
2019-01-08T08:05:39.274Z,1.32
2019-01-08T08:10:45.814Z,1.92
2019-01-08T08:15:51.894Z,4.62
2019-01-08T08:20:57.575Z,1.67
2019-01-08T08:26:03.804Z,2.55
2019-01-08T08:31:10.034Z,2.50
2019-01-08T08:36:16.284Z,3.17
2019-01-08T08:41:22.245Z,1.98
2019-01-08T08:46:28.044Z,1.95
2019-01-08T08:51:33.914Z,2.77
2019-01-08T08:56:40.144Z,1.52
2019-01-08T09:01:46.114Z,2.37
2019-01-08T09:06:51.565Z,2.10
2019-01-08T09:11:57.863Z,2.17
2019-01-08T09:17:03.914Z,2.47
2019-01-08T09:22:09.634Z,4.50
2019-01-08T09:27:17.052Z,2.08
2019-01-08T09:32:23.013Z,1.72
2019-01-08T09:37:29.270Z,1.67
2019-01-08T09:42:35.374Z,2.55
2019-01-08T09:47:41.025Z,3.65
2019-01-08T09:52:46.785Z,3.30
2019-01-08T09:57:53.415Z,3.62
2019-01-08T10:02:59.175Z,4.45
2019-01-08T10:08:05.663Z,1.85
2019-01-08T10:13:11.749Z,3.35
2019-01-08T10:18:18.013Z,4.00
2019-01-08T10:23:24.271Z,1.30
2019-01-08T10:28:30.624Z,3.87
2019-01-08T10:33:36.304Z,3.65
2019-01-08T10:38:42.134Z,7.55
2019-01-08T10:43:48.344Z,14.98
2019-01-08T10:48:54.574Z,40.60
2019-01-08T10:54:01.064Z,59.63
2019-01-08T10:59:07.659Z,54.23
2019-01-08T11:04:14.844Z,40.63
2019-01-08T11:09:20.834Z,43.45
2019-01-08T11:14:29.797Z,48.50
2019-01-08T11:19:35.426Z,32.60
2019-01-08T11:24:41.484Z,33.83
2019-01-08T11:29:47.732Z,28.90
2019-01-08T11:34:53.655Z,33.05
2019-01-08T11:40:00.275Z,41.10
2019-01-08T11:45:06.457Z,37.40
2019-01-08T11:50:11.997Z,34.10
2019-01-08T11:55:18.645Z,34.20
2019-01-08T12:00:26.065Z,24.92
2019-01-08T12:05:32.965Z,24.55
2019-01-08T12:10:40.563Z,20.92
2019-01-08T12:15:46.226Z,19.32
2019-01-08T12:20:52.525Z,18.30
2019-01-08T12:25:58.746Z,17.32
2019-01-08T12:31:05.044Z,18.65
2019-01-08T12:36:10.814Z,20.68
2019-01-08T12:41:16.963Z,20.72
2019-01-08T12:46:23.269Z,21.80
2019-01-08T12:51:30.473Z,19.85
2019-01-08T12:56:36.333Z,16.27
2019-01-08T13:01:42.227Z,18.25
2019-01-08T13:06:48.074Z,10.90
2019-01-08T13:11:54.494Z,11.93
2019-01-08T13:17:00.545Z,15.90
2019-01-08T13:22:06.274Z,11.83
2019-01-08T13:27:11.813Z,13.88
2019-01-08T13:32:23.046Z,12.95
2019-01-08T13:37:26.753Z,11.70
2019-01-08T13:42:32.743Z,13.22
2019-01-08T13:47:39.043Z,11.30
2019-01-08T13:52:45.256Z,8.63
2019-01-08T13:57:51.104Z,11.40
2019-01-08T14:02:57.453Z,10.32
2019-01-08T14:08:03.953Z,10.28
2019-01-08T14:13:09.665Z,9.50
2019-01-08T14:18:17.404Z,10.35
2019-01-08T14:23:23.436Z,11.57
2019-01-08T14:28:29.924Z,8.45
2019-01-08T14:33:36.384Z,9.95
2019-01-08T14:38:42.362Z,12.33
2019-01-08T14:43:49.255Z,7.58
2019-01-08T14:48:55.063Z,8.20
2019-01-08T14:54:02.172Z,10.90
2019-01-08T14:59:08.263Z,10.10
2019-01-08T15:04:14.899Z,9.83
2019-01-08T15:09:21.633Z,8.93
2019-01-08T15:14:27.994Z,7.15
2019-01-08T15:19:34.502Z,9.80
2019-01-08T15:24:41.015Z,7.72
2019-01-08T15:29:47.562Z,10.03
2019-01-08T15:34:54.155Z,7.28
2019-01-08T15:40:00.385Z,10.05
2019-01-08T15:45:06.814Z,12.15
2019-01-08T15:50:12.685Z,9.15
2019-01-08T15:55:18.978Z,9.70
2019-01-08T16:00:24.985Z,13.65
2019-01-08T16:05:30.975Z,13.18
2019-01-08T16:10:36.932Z,14.33
2019-01-08T16:15:43.631Z,9.68
2019-01-08T16:20:49.663Z,13.20
2019-01-08T16:25:55.964Z,9.45
2019-01-08T16:31:01.923Z,7.33
2019-01-08T16:36:08.242Z,11.73
2019-01-08T16:41:14.787Z,9.73
2019-01-08T16:46:20.643Z,10.93
2019-01-08T16:51:26.803Z,13.80
2019-01-08T16:56:33.086Z,10.35
2019-01-08T17:01:39.223Z,6.20
2019-01-08T17:06:44.904Z,10.98
2019-01-08T17:11:50.773Z,7.20
2019-01-08T17:16:57.225Z,7.92
2019-01-08T17:22:03.487Z,6.00
2019-01-08T17:27:09.884Z,7.60
2019-01-08T17:32:18.459Z,7.03
2019-01-08T17:37:24.693Z,6.58
2019-01-08T17:42:30.722Z,6.60
2019-01-08T17:47:36.984Z,6.08
2019-01-08T17:52:42.986Z,7.87
2019-01-08T17:57:48.942Z,6.35
2019-01-08T18:02:56.523Z,5.87
2019-01-08T18:08:03.243Z,8.75
2019-01-08T18:13:09.380Z,5.72
2019-01-08T18:18:15.143Z,5.17
2019-01-08T18:23:20.584Z,7.05
2019-01-08T18:28:25.774Z,5.22
2019-01-08T18:33:31.903Z,6.17
2019-01-08T18:38:37.862Z,10.98
2019-01-08T18:43:44.203Z,7.08
2019-01-08T18:48:50.103Z,12.00
2019-01-08T18:53:57.671Z,10.53
2019-01-08T18:59:04.453Z,9.23
2019-01-08T19:04:11.733Z,13.05
2019-01-08T19:09:34.318Z,11.05
2019-01-08T19:14:41.814Z,5.85
2019-01-08T19:19:48.513Z,6.75
2019-01-08T19:24:54.344Z,6.67
2019-01-08T19:30:00.751Z,5.90
2019-01-08T19:35:06.954Z,11.57
2019-01-08T19:40:13.155Z,7.97
2019-01-08T19:45:20.413Z,6.78
2019-01-08T19:50:26.793Z,6.78
2019-01-08T19:55:33.462Z,7.67
2019-01-08T20:00:39.112Z,7.60
2019-01-08T20:05:45.092Z,5.33
2019-01-08T20:10:50.805Z,5.12
2019-01-08T20:15:57.184Z,6.92
2019-01-08T20:21:02.874Z,6.40
2019-01-08T20:26:09.344Z,5.35
2019-01-08T20:31:16.983Z,5.35
2019-01-08T20:36:23.073Z,7.37
2019-01-08T20:41:29.704Z,8.55
2019-01-08T20:46:36.643Z,6.08
2019-01-08T20:51:43.114Z,6.15
2019-01-08T20:56:50.020Z,5.95
2019-01-08T21:02:00.335Z,6.83
2019-01-08T21:07:06.824Z,9.25
2019-01-08T21:12:13.574Z,6.35
2019-01-08T21:17:20.032Z,6.17
2019-01-08T21:22:25.856Z,7.75
2019-01-08T21:27:32.125Z,7.80
2019-01-08T21:33:00.693Z,6.03
2019-01-08T21:38:07.103Z,4.67
2019-01-08T21:43:12.953Z,4.92
2019-01-08T21:48:18.743Z,5.67
2019-01-08T21:53:25.450Z,6.30
2019-01-08T21:58:31.463Z,4.70
2019-01-08T22:03:38.403Z,4.90
2019-01-08T22:08:44.184Z,5.92
2019-01-08T22:13:50.722Z,4.58
2019-01-08T22:18:57.047Z,4.83
2019-01-08T22:24:03.494Z,6.28
2019-01-08T22:29:28.623Z,4.85
2019-01-08T22:34:35.324Z,6.00
2019-01-08T22:39:42.165Z,5.20
2019-01-08T22:44:49.173Z,6.20
2019-01-08T22:49:55.554Z,5.28
2019-01-08T22:55:02.884Z,3.83
2019-01-08T23:00:33.223Z,5.60
2019-01-08T23:05:39.997Z,3.98
2019-01-08T23:10:47.793Z,4.85
2019-01-08T23:15:54.224Z,4.47
2019-01-08T23:21:00.014Z,4.97
2019-01-08T23:26:06.132Z,4.08
2019-01-08T23:31:12.768Z,3.08
2019-01-08T23:36:18.663Z,3.67
2019-01-08T23:41:25.154Z,4.70
2019-01-08T23:46:30.966Z,3.45
2019-01-08T23:51:36.953Z,4.65
2019-01-08T23:56:43.154Z,5.65
